createdAt,value
2018-03-31T00:00:55.707Z,7.75
2018-03-31T00:01:55.699Z,7.83
2018-03-31T00:02:55.620Z,7.85
2018-03-31T00:03:55.586Z,7.74
2018-03-31T00:04:55.540Z,7.79
2018-03-31T00:05:55.498Z,7.79
2018-03-31T00:06:55.460Z,7.80
2018-03-31T00:07:55.447Z,7.86
2018-03-31T00:08:55.372Z,7.87
2018-03-31T00:09:55.335Z,7.89
2018-03-31T00:10:55.291Z,7.92
2018-03-31T00:11:55.259Z,7.95
2018-03-31T00:12:55.220Z,7.77
2018-03-31T00:13:55.192Z,7.87
2018-03-31T00:14:55.131Z,7.82
2018-03-31T00:15:55.083Z,7.90
2018-03-31T00:16:55.044Z,7.83
2018-03-31T00:17:55.039Z,7.79
2018-03-31T00:18:54.969Z,7.77
2018-03-31T00:19:54.915Z,7.85
2018-03-31T00:20:54.880Z,7.85
2018-03-31T00:21:54.846Z,7.82
2018-03-31T00:22:54.806Z,7.69
2018-03-31T00:23:54.783Z,7.77
2018-03-31T00:24:54.720Z,7.57
2018-03-31T00:25:54.694Z,7.67
2018-03-31T00:26:54.632Z,7.63
2018-03-31T00:27:54.593Z,7.55
2018-03-31T00:28:54.552Z,7.57
2018-03-31T00:29:54.540Z,7.49
2018-03-31T00:30:54.469Z,7.53
2018-03-31T00:31:54.432Z,7.45
2018-03-31T00:32:54.390Z,7.46
2018-03-31T00:33:54.351Z,7.43
2018-03-31T00:34:54.345Z,7.34
2018-03-31T00:35:54.261Z,7.32
2018-03-31T00:36:54.219Z,7.28
2018-03-31T00:37:54.175Z,7.35
2018-03-31T00:38:54.174Z,7.17
2018-03-31T00:39:54.091Z,7.09
2018-03-31T00:40:54.080Z,7.15
2018-03-31T00:41:54.024Z,6.98
2018-03-31T00:42:53.964Z,6.92
2018-03-31T00:43:53.930Z,6.89
2018-03-31T00:44:53.915Z,6.79
2018-03-31T00:45:53.842Z,6.77
2018-03-31T00:46:53.810Z,6.73
2018-03-31T00:47:53.765Z,6.69
2018-03-31T00:48:53.761Z,6.69
2018-03-31T00:49:53.684Z,6.77
2018-03-31T00:50:53.668Z,6.73
2018-03-31T00:51:53.593Z,6.73
2018-03-31T00:52:53.552Z,6.58
2018-03-31T00:53:53.522Z,6.64
2018-03-31T00:54:53.468Z,6.62
2018-03-31T00:55:53.459Z,6.71
2018-03-31T00:56:53.389Z,6.64
2018-03-31T00:57:53.351Z,6.66
2018-03-31T00:58:53.311Z,6.55
2018-03-31T00:59:53.258Z,6.55
2018-03-31T01:00:53.219Z,6.46
2018-03-31T01:01:53.213Z,6.55
2018-03-31T01:02:53.144Z,6.62
2018-03-31T01:03:53.095Z,6.51
2018-03-31T01:04:53.058Z,6.46
2018-03-31T01:05:53.019Z,6.54
2018-03-31T01:06:52.970Z,6.40
2018-03-31T01:07:52.949Z,6.38
2018-03-31T01:08:52.888Z,6.34
2018-03-31T01:09:52.842Z,6.31
2018-03-31T01:10:52.849Z,6.17
2018-03-31T01:11:52.796Z,6.14
2018-03-31T01:12:52.715Z,6.11
2018-03-31T01:13:52.677Z,6.00
2018-03-31T01:14:52.630Z,6.06
2018-03-31T01:15:52.601Z,6.06
2018-03-31T01:16:52.561Z,6.04
2018-03-31T01:17:52.544Z,5.97
2018-03-31T01:18:52.468Z,6.03
2018-03-31T01:19:52.428Z,5.93
2018-03-31T01:20:52.386Z,5.90
2018-03-31T01:21:52.343Z,5.91
2018-03-31T01:22:52.306Z,5.82
2018-03-31T01:23:52.290Z,5.72
2018-03-31T01:24:52.212Z,5.74
2018-03-31T01:25:52.181Z,5.76
2018-03-31T01:26:52.143Z,5.65
2018-03-31T01:27:52.091Z,5.58
2018-03-31T01:28:52.058Z,5.49
2018-03-31T01:29:52.031Z,5.57
2018-03-31T01:30:51.964Z,5.43
2018-03-31T01:31:51.925Z,5.48
2018-03-31T01:32:51.881Z,5.43
2018-03-31T01:33:51.836Z,5.56
2018-03-31T01:34:51.789Z,5.45
2018-03-31T01:35:51.785Z,5.40
2018-03-31T01:36:51.723Z,5.43
2018-03-31T01:37:51.672Z,5.38
2018-03-31T01:38:51.620Z,5.28
2018-03-31T01:39:51.583Z,5.31
2018-03-31T01:40:51.540Z,5.12
2018-03-31T01:41:51.523Z,5.15
2018-03-31T01:42:51.460Z,5.25
2018-03-31T01:43:51.417Z,5.13
2018-03-31T01:44:51.373Z,5.12
2018-03-31T01:45:51.336Z,5.00
2018-03-31T01:46:51.281Z,5.03
2018-03-31T01:47:51.281Z,5.02
2018-03-31T01:48:51.203Z,5.09
2018-03-31T01:49:51.153Z,4.86
2018-03-31T01:50:51.114Z,4.94
2018-03-31T01:51:51.079Z,4.92
2018-03-31T01:52:51.038Z,4.97
2018-03-31T01:53:51.015Z,4.91
2018-03-31T01:54:50.946Z,4.86
2018-03-31T01:55:50.900Z,4.96
2018-03-31T01:56:50.859Z,4.85
2018-03-31T01:57:50.823Z,4.73
2018-03-31T01:58:50.803Z,4.85
2018-03-31T01:59:50.738Z,4.77
2018-03-31T02:00:50.696Z,4.77
2018-03-31T02:01:50.652Z,4.77
2018-03-31T02:02:50.609Z,4.84
2018-03-31T02:03:50.561Z,4.67
2018-03-31T02:04:50.540Z,4.66
2018-03-31T02:05:50.480Z,4.69
2018-03-31T02:06:50.440Z,4.69
2018-03-31T02:07:50.384Z,4.58
2018-03-31T02:08:50.383Z,4.55
2018-03-31T02:09:50.310Z,4.55
2018-03-31T02:10:50.261Z,4.55
2018-03-31T02:11:50.217Z,4.48
2018-03-31T02:12:50.171Z,4.47
2018-03-31T02:13:50.134Z,4.50
2018-03-31T02:14:50.119Z,4.62
2018-03-31T02:15:50.059Z,4.60
2018-03-31T02:16:50.017Z,4.58
2018-03-31T02:17:49.967Z,4.55
2018-03-31T02:18:49.924Z,4.55
2018-03-31T02:19:49.872Z,4.51
2018-03-31T02:20:49.856Z,4.44
2018-03-31T02:21:49.792Z,4.42
2018-03-31T02:22:49.748Z,4.50
2018-03-31T02:23:49.706Z,4.41
2018-03-31T02:24:49.663Z,4.41
2018-03-31T02:25:49.625Z,4.47
2018-03-31T02:26:49.596Z,4.52
2018-03-31T02:27:49.532Z,4.52
2018-03-31T02:28:49.498Z,4.59
2018-03-31T02:29:49.440Z,4.50
2018-03-31T02:30:49.410Z,4.48
2018-03-31T02:31:49.364Z,4.40
2018-03-31T02:32:49.340Z,4.33
2018-03-31T02:33:49.278Z,4.30
2018-03-31T02:34:49.228Z,4.22
2018-03-31T02:35:49.194Z,4.22
2018-03-31T02:36:49.156Z,4.08
2018-03-31T02:37:49.126Z,4.08
2018-03-31T02:38:49.063Z,4.08
2018-03-31T02:39:49.020Z,4.05
2018-03-31T02:40:48.984Z,4.04
2018-03-31T02:41:48.932Z,4.15
2018-03-31T02:42:48.888Z,3.98
2018-03-31T02:43:48.867Z,4.18
2018-03-31T02:44:48.793Z,4.24
2018-03-31T02:45:48.754Z,4.12
2018-03-31T02:46:48.712Z,4.11
2018-03-31T02:47:48.677Z,4.18
2018-03-31T02:48:48.630Z,4.18
2018-03-31T02:49:48.605Z,3.96
2018-03-31T02:50:48.545Z,3.97
2018-03-31T02:51:48.492Z,3.94
2018-03-31T02:52:48.455Z,3.93
2018-03-31T02:53:48.407Z,3.90
2018-03-31T02:54:48.367Z,3.93
2018-03-31T02:55:48.357Z,3.87
2018-03-31T02:56:48.282Z,3.80
2018-03-31T02:57:48.241Z,3.80
2018-03-31T02:58:48.192Z,3.78
2018-03-31T02:59:48.155Z,3.73
2018-03-31T03:00:48.106Z,3.73
2018-03-31T03:01:48.084Z,3.73
2018-03-31T03:02:48.021Z,3.66
2018-03-31T03:03:47.970Z,3.65
2018-03-31T03:04:47.930Z,3.66
2018-03-31T03:05:47.926Z,3.60
2018-03-31T03:06:47.838Z,3.66
2018-03-31T03:07:47.828Z,3.72
2018-03-31T03:08:47.757Z,3.73
2018-03-31T03:09:47.716Z,3.87
2018-03-31T03:10:47.678Z,3.87
2018-03-31T03:11:47.632Z,3.87
2018-03-31T03:12:47.612Z,3.70
2018-03-31T03:13:47.538Z,3.69
2018-03-31T03:14:47.493Z,3.70
2018-03-31T03:15:47.458Z,3.66
2018-03-31T03:16:47.402Z,3.58
2018-03-31T03:17:47.388Z,3.55
2018-03-31T03:18:47.313Z,3.48
2018-03-31T03:19:47.283Z,3.54
2018-03-31T03:20:47.237Z,3.48
2018-03-31T03:21:47.191Z,3.61
2018-03-31T03:22:47.185Z,3.58
2018-03-31T03:23:47.097Z,3.62
2018-03-31T03:24:47.058Z,3.66
2018-03-31T03:25:47.011Z,3.70
2018-03-31T03:26:46.970Z,3.58
2018-03-31T03:27:46.933Z,3.50
2018-03-31T03:28:46.917Z,3.57
2018-03-31T03:29:46.843Z,3.51
2018-03-31T03:30:46.792Z,3.40
2018-03-31T03:31:46.762Z,3.40
2018-03-31T03:32:46.720Z,3.48
2018-03-31T03:33:46.662Z,3.48
2018-03-31T03:34:46.649Z,3.48
2018-03-31T03:35:46.580Z,3.40
2018-03-31T03:36:46.539Z,3.47
2018-03-31T03:37:46.492Z,3.39
2018-03-31T03:38:46.447Z,3.39
2018-03-31T03:39:46.405Z,3.42
2018-03-31T03:40:46.398Z,3.33
2018-03-31T03:41:46.315Z,3.48
2018-03-31T03:42:46.275Z,3.54
2018-03-31T03:43:46.228Z,3.79
2018-03-31T03:44:46.193Z,3.87
2018-03-31T03:45:46.144Z,3.88
2018-03-31T03:46:46.129Z,4.06
2018-03-31T03:47:46.046Z,4.02
2018-03-31T03:48:46.014Z,3.91
2018-03-31T03:49:45.969Z,3.97
2018-03-31T03:50:45.920Z,3.83
2018-03-31T03:51:45.875Z,3.78
2018-03-31T03:52:45.865Z,3.90
2018-03-31T03:53:45.795Z,3.83
2018-03-31T03:54:45.749Z,3.86
2018-03-31T03:55:45.711Z,3.86
2018-03-31T03:56:45.652Z,3.96
2018-03-31T03:57:45.633Z,3.80
2018-03-31T03:58:45.592Z,3.72
2018-03-31T03:59:45.529Z,3.86
2018-03-31T04:00:45.477Z,3.83
2018-03-31T04:01:45.449Z,3.91
2018-03-31T04:02:45.394Z,3.86
2018-03-31T04:03:45.395Z,3.79
2018-03-31T04:04:45.309Z,3.80
2018-03-31T04:05:45.283Z,3.84
2018-03-31T04:06:45.220Z,3.75
2018-03-31T04:07:45.182Z,3.73
2018-03-31T04:08:45.167Z,3.78
2018-03-31T04:09:45.091Z,3.84
2018-03-31T04:10:45.037Z,3.87
2018-03-31T04:11:45.011Z,3.96
2018-03-31T04:12:44.963Z,3.90
2018-03-31T04:13:44.909Z,4.00
2018-03-31T04:14:44.897Z,3.90
2018-03-31T04:15:44.825Z,3.80
2018-03-31T04:16:44.799Z,3.96
2018-03-31T04:17:44.735Z,4.06
2018-03-31T04:18:44.712Z,3.97
2018-03-31T04:19:44.653Z,3.93
2018-03-31T04:20:44.638Z,3.91
2018-03-31T04:21:44.582Z,3.97
2018-03-31T04:22:44.516Z,3.98
2018-03-31T04:23:44.476Z,4.06
2018-03-31T04:24:44.440Z,4.08
2018-03-31T04:25:44.384Z,4.18
2018-03-31T04:26:44.383Z,4.20
2018-03-31T04:27:44.307Z,4.09
2018-03-31T04:28:44.259Z,4.18
2018-03-31T04:29:44.226Z,4.00
2018-03-31T04:30:44.164Z,4.02
2018-03-31T04:31:44.134Z,4.05
2018-03-31T04:32:44.113Z,4.18
2018-03-31T04:33:44.049Z,4.02
2018-03-31T04:34:44.012Z,3.94
2018-03-31T04:35:43.958Z,3.91
2018-03-31T04:36:43.914Z,3.73
2018-03-31T04:37:43.898Z,3.83
2018-03-31T04:38:43.823Z,3.78
2018-03-31T04:39:43.775Z,3.79
2018-03-31T04:40:43.727Z,3.78
2018-03-31T04:41:43.694Z,3.78
2018-03-31T04:42:43.675Z,3.87
2018-03-31T04:43:43.601Z,3.88
2018-03-31T04:44:43.563Z,3.73
2018-03-31T04:45:43.521Z,3.76
2018-03-31T04:46:43.481Z,3.70
2018-03-31T04:47:43.444Z,3.65
2018-03-31T04:48:43.380Z,3.62
2018-03-31T04:49:43.337Z,3.43
2018-03-31T04:50:43.305Z,3.52
2018-03-31T04:51:43.257Z,3.57
2018-03-31T04:52:43.238Z,3.65
2018-03-31T04:53:43.170Z,3.60
2018-03-31T04:54:43.111Z,3.61
2018-03-31T04:55:43.079Z,3.48
2018-03-31T04:56:43.041Z,3.50
2018-03-31T04:57:43.022Z,3.33
2018-03-31T04:58:42.946Z,3.26
2018-03-31T04:59:42.901Z,3.24
2018-03-31T05:00:42.852Z,3.28
2018-03-31T05:01:42.819Z,3.36
2018-03-31T05:02:42.778Z,3.28
2018-03-31T05:03:42.758Z,3.28
2018-03-31T05:04:42.676Z,3.18
2018-03-31T05:05:42.651Z,3.18
2018-03-31T05:06:42.590Z,3.23
2018-03-31T05:07:42.559Z,3.17
2018-03-31T05:08:42.505Z,3.24
2018-03-31T05:09:42.490Z,3.32
2018-03-31T05:10:42.440Z,3.36
2018-03-31T05:11:42.378Z,3.39
2018-03-31T05:12:42.331Z,3.43
2018-03-31T05:13:42.285Z,3.33
2018-03-31T05:14:42.272Z,3.33
2018-03-31T05:15:42.202Z,3.29
2018-03-31T05:16:42.159Z,3.29
2018-03-31T05:17:42.109Z,3.29
2018-03-31T05:18:42.063Z,3.26
2018-03-31T05:19:42.024Z,3.26
2018-03-31T05:20:42.007Z,3.28
2018-03-31T05:21:41.930Z,3.26
2018-03-31T05:22:41.894Z,3.17
2018-03-31T05:23:41.841Z,3.11
2018-03-31T05:24:41.805Z,3.13
2018-03-31T05:25:41.763Z,3.13
2018-03-31T05:26:41.745Z,3.05
2018-03-31T05:27:41.668Z,3.10
2018-03-31T05:28:41.627Z,2.97
2018-03-31T05:29:41.579Z,3.00
2018-03-31T05:30:41.545Z,3.13
2018-03-31T05:31:41.493Z,3.15
2018-03-31T05:32:41.481Z,3.17
2018-03-31T05:33:41.412Z,3.08
2018-03-31T05:34:41.358Z,3.21
2018-03-31T05:35:41.315Z,3.20
2018-03-31T05:36:41.267Z,3.36
2018-03-31T05:37:41.234Z,3.47
2018-03-31T05:38:41.206Z,3.58
2018-03-31T05:39:41.141Z,3.76
2018-03-31T05:40:41.100Z,4.04
2018-03-31T05:41:41.056Z,3.93
2018-03-31T05:42:41.015Z,4.04
2018-03-31T05:43:40.989Z,4.12
2018-03-31T05:44:40.915Z,4.11
2018-03-31T05:45:40.883Z,4.15
2018-03-31T05:46:40.832Z,3.96
2018-03-31T05:47:40.793Z,4.05
2018-03-31T05:48:40.745Z,3.97
2018-03-31T05:49:40.758Z,4.05
2018-03-31T05:50:40.656Z,4.15
2018-03-31T05:51:40.610Z,4.20
2018-03-31T05:52:40.569Z,4.30
2018-03-31T05:53:40.522Z,4.36
2018-03-31T05:54:40.478Z,4.37
2018-03-31T05:55:40.466Z,4.44
2018-03-31T05:56:40.397Z,4.59
2018-03-31T05:57:40.356Z,4.59
2018-03-31T05:58:40.308Z,4.66
2018-03-31T05:59:40.271Z,4.72
2018-03-31T06:00:40.229Z,4.69
2018-03-31T06:01:40.201Z,4.66
2018-03-31T06:02:40.134Z,4.78
2018-03-31T06:03:40.090Z,4.94
2018-03-31T06:04:40.042Z,5.06
2018-03-31T06:05:40.004Z,5.20
2018-03-31T06:06:39.985Z,5.28
2018-03-31T06:07:39.923Z,5.31
2018-03-31T06:08:39.870Z,5.35
2018-03-31T06:09:39.837Z,5.38
2018-03-31T06:10:39.788Z,5.67
2018-03-31T06:11:39.770Z,5.94
2018-03-31T06:12:39.702Z,6.22
2018-03-31T06:13:39.662Z,6.58
2018-03-31T06:14:39.624Z,6.99
2018-03-31T06:15:39.568Z,7.27
2018-03-31T06:16:39.559Z,7.37
2018-03-31T06:17:39.490Z,7.42
2018-03-31T06:18:39.445Z,7.52
2018-03-31T06:19:39.399Z,7.45
2018-03-31T06:20:39.356Z,7.64
2018-03-31T06:21:39.328Z,7.68
2018-03-31T06:22:39.306Z,7.75
2018-03-31T06:23:39.242Z,7.77
2018-03-31T06:24:39.195Z,7.71
2018-03-31T06:25:39.159Z,7.92
2018-03-31T06:26:39.103Z,8.10
2018-03-31T06:27:39.072Z,8.25
2018-03-31T06:28:39.053Z,8.40
2018-03-31T06:29:38.978Z,8.30
2018-03-31T06:30:39.001Z,8.38
2018-03-31T06:31:38.903Z,8.26
2018-03-31T06:32:38.861Z,8.28
2018-03-31T06:33:38.824Z,8.43
2018-03-31T06:34:38.803Z,8.48
2018-03-31T06:35:38.742Z,8.66
2018-03-31T06:36:38.694Z,8.56
2018-03-31T06:37:38.651Z,8.56
2018-03-31T06:38:38.609Z,8.59
2018-03-31T06:39:38.567Z,8.44
2018-03-31T06:40:38.558Z,8.44
2018-03-31T06:41:38.484Z,8.61
2018-03-31T06:42:38.452Z,8.77
2018-03-31T06:43:38.403Z,8.92
2018-03-31T06:44:38.369Z,9.11
2018-03-31T06:45:38.352Z,9.40
2018-03-31T06:46:38.353Z,9.69
2018-03-31T06:47:38.245Z,9.65
2018-03-31T06:48:38.210Z,9.53
2018-03-31T06:49:38.175Z,9.46
2018-03-31T06:50:38.119Z,9.71
2018-03-31T06:51:38.099Z,9.72
2018-03-31T06:52:38.044Z,9.57
2018-03-31T06:53:37.999Z,9.68
2018-03-31T06:54:37.967Z,9.75
2018-03-31T06:55:37.932Z,9.72
2018-03-31T06:56:37.912Z,10.07
2018-03-31T06:57:37.845Z,10.56
2018-03-31T06:58:37.803Z,10.61
2018-03-31T06:59:37.761Z,11.25
2018-03-31T07:00:37.914Z,11.24
2018-03-31T07:01:37.680Z,10.88
2018-03-31T07:02:37.670Z,10.63
2018-03-31T07:03:37.598Z,10.84
2018-03-31T07:04:37.565Z,11.19
2018-03-31T07:05:37.570Z,11.24
2018-03-31T07:06:37.480Z,11.14
2018-03-31T07:07:37.469Z,11.36
2018-03-31T07:08:37.403Z,11.51
2018-03-31T07:09:37.362Z,11.75
2018-03-31T07:10:37.339Z,11.95
2018-03-31T07:11:37.289Z,12.16
2018-03-31T07:12:37.286Z,12.42
2018-03-31T07:13:37.217Z,12.54
2018-03-31T07:14:37.177Z,12.60
2018-03-31T07:15:37.130Z,12.93
2018-03-31T07:16:37.094Z,12.74
2018-03-31T07:17:37.066Z,12.28
2018-03-31T07:18:37.050Z,12.45
2018-03-31T07:19:36.980Z,12.56
2018-03-31T07:20:36.948Z,12.49
2018-03-31T07:21:36.912Z,11.99
2018-03-31T07:22:36.875Z,11.78
2018-03-31T07:23:36.827Z,11.75
2018-03-31T07:24:36.815Z,11.35
2018-03-31T07:25:36.763Z,11.27
2018-03-31T07:26:36.720Z,11.39
2018-03-31T07:27:36.681Z,10.85
2018-03-31T07:28:36.646Z,11.21
2018-03-31T07:29:36.640Z,11.25
2018-03-31T07:30:36.566Z,11.67
2018-03-31T07:31:36.537Z,11.94
2018-03-31T07:32:36.494Z,12.02
2018-03-31T07:33:36.451Z,12.09
2018-03-31T07:34:36.432Z,12.28
2018-03-31T07:35:36.412Z,12.77
2018-03-31T07:36:36.399Z,12.89
2018-03-31T07:37:36.315Z,12.96
2018-03-31T07:38:36.269Z,13.25
2018-03-31T07:39:36.241Z,13.54
2018-03-31T07:40:36.199Z,13.70
2018-03-31T07:41:36.191Z,13.60
2018-03-31T07:42:36.127Z,13.05
2018-03-31T07:43:36.089Z,13.03
2018-03-31T07:44:36.062Z,11.90
2018-03-31T07:45:36.016Z,11.55
2018-03-31T07:46:35.983Z,11.32
2018-03-31T07:47:35.971Z,11.52
2018-03-31T07:48:35.905Z,11.06
2018-03-31T07:49:35.875Z,11.04
2018-03-31T07:50:35.828Z,11.22
2018-03-31T07:51:35.800Z,11.76
2018-03-31T07:52:35.807Z,12.13
2018-03-31T07:53:35.720Z,12.32
2018-03-31T07:54:35.738Z,12.71
2018-03-31T07:55:35.656Z,12.92
2018-03-31T07:56:35.633Z,13.14
2018-03-31T07:57:35.595Z,13.29
2018-03-31T07:58:35.570Z,13.12
2018-03-31T07:59:35.521Z,12.86
2018-03-31T08:00:35.479Z,13.04
2018-03-31T08:01:35.460Z,12.87
2018-03-31T08:02:35.396Z,13.08
2018-03-31T08:03:35.370Z,13.46
2018-03-31T08:04:35.357Z,13.82
2018-03-31T08:05:35.293Z,14.15
2018-03-31T08:06:35.272Z,14.43
2018-03-31T08:07:35.228Z,14.58
2018-03-31T08:08:35.205Z,14.83
2018-03-31T08:09:35.190Z,14.62
2018-03-31T08:10:35.119Z,14.18
2018-03-31T08:11:35.099Z,14.21
2018-03-31T08:12:35.070Z,14.27
2018-03-31T08:13:35.014Z,14.00
2018-03-31T08:14:34.987Z,14.39
2018-03-31T08:15:34.986Z,14.28
2018-03-31T08:16:34.923Z,14.37
2018-03-31T08:17:34.882Z,14.64
2018-03-31T08:18:34.863Z,15.14
2018-03-31T08:19:34.813Z,15.53
2018-03-31T08:20:34.775Z,15.36
2018-03-31T08:21:34.777Z,14.96
2018-03-31T08:22:34.720Z,14.55
2018-03-31T08:23:34.685Z,14.62
2018-03-31T08:24:34.689Z,14.40
2018-03-31T08:25:34.612Z,13.12
2018-03-31T08:26:34.595Z,13.25
2018-03-31T08:27:34.586Z,13.81
2018-03-31T08:28:34.516Z,13.82
2018-03-31T08:29:34.482Z,13.30
2018-03-31T08:30:34.474Z,13.38
2018-03-31T08:31:34.419Z,13.84
2018-03-31T08:32:34.378Z,14.22
2018-03-31T08:33:34.375Z,14.12
2018-03-31T08:34:34.321Z,13.82
2018-03-31T08:35:34.276Z,13.95
2018-03-31T08:36:34.251Z,14.40
2018-03-31T08:37:34.216Z,14.07
2018-03-31T08:38:34.189Z,13.91
2018-03-31T08:39:34.166Z,14.00
2018-03-31T08:40:34.118Z,13.97
2018-03-31T08:41:34.087Z,13.91
2018-03-31T08:42:34.042Z,13.96
2018-03-31T08:43:34.016Z,14.39
2018-03-31T08:44:34.010Z,14.62
2018-03-31T08:45:33.948Z,15.13
2018-03-31T08:46:33.928Z,15.60
2018-03-31T08:47:33.883Z,15.74
2018-03-31T08:48:33.864Z,15.74
2018-03-31T08:49:33.837Z,15.14
2018-03-31T08:50:33.793Z,15.09
2018-03-31T08:51:33.762Z,15.62
2018-03-31T08:52:33.725Z,15.20
2018-03-31T08:53:33.691Z,15.44
2018-03-31T08:54:33.690Z,15.60
2018-03-31T08:55:33.641Z,15.38
2018-03-31T08:56:33.596Z,14.43
2018-03-31T08:57:33.565Z,14.60
2018-03-31T08:58:33.534Z,14.20
2018-03-31T08:59:33.504Z,14.35
2018-03-31T09:00:33.545Z,14.81
2018-03-31T09:01:33.439Z,15.36
2018-03-31T09:02:33.402Z,15.59
2018-03-31T09:03:33.370Z,15.76
2018-03-31T09:04:33.334Z,15.83
2018-03-31T09:05:33.309Z,15.32
2018-03-31T09:06:33.303Z,15.29
2018-03-31T09:07:33.251Z,15.09
2018-03-31T09:08:33.219Z,15.43
2018-03-31T09:09:33.181Z,15.46
2018-03-31T09:10:33.153Z,15.16
2018-03-31T09:11:33.151Z,14.83
2018-03-31T09:12:33.081Z,15.11
2018-03-31T09:13:33.056Z,15.78
2018-03-31T09:14:33.041Z,16.48
2018-03-31T09:15:32.999Z,16.63
2018-03-31T09:16:32.999Z,16.45
2018-03-31T09:17:32.931Z,16.42
2018-03-31T09:18:32.898Z,15.51
2018-03-31T09:19:32.869Z,15.41
2018-03-31T09:20:32.842Z,15.78
2018-03-31T09:21:32.835Z,16.24
2018-03-31T09:22:32.774Z,16.42
2018-03-31T09:23:32.750Z,16.08
2018-03-31T09:24:32.722Z,15.84
2018-03-31T09:25:32.683Z,15.71
2018-03-31T09:26:32.650Z,15.90
2018-03-31T09:27:32.668Z,15.90
2018-03-31T09:28:32.598Z,16.24
2018-03-31T09:29:32.567Z,16.07
2018-03-31T09:30:32.534Z,15.90
2018-03-31T09:31:32.514Z,16.04
2018-03-31T09:32:32.478Z,16.39
2018-03-31T09:33:32.471Z,16.64
2018-03-31T09:34:32.408Z,16.33
2018-03-31T09:35:32.397Z,15.83
2018-03-31T09:36:32.344Z,16.38
2018-03-31T09:37:32.333Z,16.25
2018-03-31T09:38:32.340Z,16.39
2018-03-31T09:39:32.310Z,16.64
2018-03-31T09:40:32.241Z,16.33
2018-03-31T09:41:32.219Z,16.48
2018-03-31T09:42:32.178Z,16.61
2018-03-31T09:43:32.169Z,16.75
2018-03-31T09:44:32.138Z,16.76
2018-03-31T09:45:32.096Z,17.21
2018-03-31T09:46:32.061Z,17.33
2018-03-31T09:47:32.033Z,17.06
2018-03-31T09:48:32.032Z,16.85
2018-03-31T09:49:31.966Z,17.00
2018-03-31T09:50:31.961Z,16.58
2018-03-31T09:51:31.928Z,16.71
2018-03-31T09:52:31.898Z,16.89
2018-03-31T09:53:31.878Z,16.82
2018-03-31T09:54:31.858Z,17.18
2018-03-31T09:55:31.809Z,16.89
2018-03-31T09:56:31.779Z,16.88
2018-03-31T09:57:31.739Z,16.76
2018-03-31T09:58:31.724Z,16.93
2018-03-31T09:59:31.683Z,17.06
2018-03-31T10:00:31.683Z,16.79
2018-03-31T10:01:31.629Z,17.16
2018-03-31T10:02:31.613Z,17.16
2018-03-31T10:03:31.565Z,16.89
2018-03-31T10:04:31.585Z,17.25
2018-03-31T10:05:31.554Z,16.78
2018-03-31T10:06:31.499Z,16.52
2018-03-31T10:07:31.473Z,16.86
2018-03-31T10:08:31.420Z,17.16
2018-03-31T10:09:31.404Z,17.74
2018-03-31T10:10:31.395Z,17.55
2018-03-31T10:11:31.351Z,17.54
2018-03-31T10:12:31.345Z,17.07
2018-03-31T10:13:31.288Z,16.61
2018-03-31T10:14:31.250Z,16.67
2018-03-31T10:15:31.247Z,17.26
2018-03-31T10:16:31.197Z,17.01
2018-03-31T10:17:31.178Z,16.78
2018-03-31T10:18:31.159Z,17.00
2018-03-31T10:19:31.104Z,17.08
2018-03-31T10:20:31.087Z,17.46
2018-03-31T10:21:31.103Z,17.77
2018-03-31T10:22:31.045Z,17.95
2018-03-31T10:23:31.009Z,17.95
2018-03-31T10:24:30.991Z,17.77
2018-03-31T10:25:30.946Z,17.66
2018-03-31T10:26:30.931Z,17.68
2018-03-31T10:27:30.935Z,17.58
2018-03-31T10:28:30.874Z,17.82
2018-03-31T10:29:30.831Z,17.78
2018-03-31T10:30:30.816Z,18.11
2018-03-31T10:31:30.773Z,18.47
2018-03-31T10:32:30.778Z,18.27
2018-03-31T10:33:30.776Z,17.56
2018-03-31T10:34:30.720Z,16.82
2018-03-31T10:35:30.673Z,17.00
2018-03-31T10:36:30.678Z,17.23
2018-03-31T10:37:30.649Z,17.34
2018-03-31T10:38:30.641Z,17.46
2018-03-31T10:39:30.620Z,17.55
2018-03-31T10:40:30.531Z,17.66
2018-03-31T10:41:30.508Z,17.30
2018-03-31T10:42:30.490Z,17.25
2018-03-31T10:43:30.457Z,17.16
2018-03-31T10:44:30.439Z,17.59
2018-03-31T10:45:30.430Z,18.05
2018-03-31T10:46:30.385Z,18.27
2018-03-31T10:47:30.394Z,18.25
2018-03-31T10:48:30.321Z,18.17
2018-03-31T10:49:30.318Z,18.26
2018-03-31T10:50:30.272Z,18.41
2018-03-31T10:51:30.268Z,18.55
2018-03-31T10:52:30.218Z,18.62
2018-03-31T10:53:30.201Z,18.78
2018-03-31T10:54:30.155Z,18.82
2018-03-31T10:55:30.123Z,18.88
2018-03-31T10:56:30.128Z,18.45
2018-03-31T10:57:30.080Z,18.41
2018-03-31T10:58:30.043Z,18.33
2018-03-31T10:59:30.019Z,18.12
2018-03-31T11:00:29.993Z,18.02
2018-03-31T11:01:29.973Z,18.15
2018-03-31T11:02:29.973Z,18.32
2018-03-31T11:03:29.916Z,17.90
2018-03-31T11:04:29.910Z,18.03
2018-03-31T11:05:29.909Z,18.29
2018-03-31T11:06:29.839Z,18.27
2018-03-31T11:07:29.820Z,18.12
2018-03-31T11:08:29.813Z,17.96
2018-03-31T11:09:29.776Z,17.93
2018-03-31T11:10:29.736Z,18.07
2018-03-31T11:11:29.726Z,17.79
2018-03-31T11:12:29.690Z,17.07
2018-03-31T11:13:29.644Z,16.89
2018-03-31T11:14:29.639Z,17.08
2018-03-31T11:15:29.606Z,17.25
2018-03-31T11:16:29.583Z,16.94
2018-03-31T11:17:29.565Z,16.91
2018-03-31T11:18:29.538Z,17.18
2018-03-31T11:19:29.535Z,17.46
2018-03-31T11:20:29.456Z,17.64
2018-03-31T11:21:29.433Z,17.51
2018-03-31T11:22:29.412Z,17.14
2018-03-31T11:23:29.381Z,17.34
2018-03-31T11:24:29.352Z,17.46
2018-03-31T11:25:29.344Z,17.43
2018-03-31T11:26:29.301Z,17.44
2018-03-31T11:27:29.262Z,17.66
2018-03-31T11:28:29.252Z,17.52
2018-03-31T11:29:29.212Z,17.28
2018-03-31T11:30:29.190Z,17.49
2018-03-31T11:31:29.185Z,17.16
2018-03-31T11:32:29.124Z,17.25
2018-03-31T11:33:29.102Z,17.68
2018-03-31T11:34:29.078Z,17.81
2018-03-31T11:35:29.051Z,18.02
2018-03-31T11:36:29.050Z,18.32
2018-03-31T11:37:28.994Z,17.63
2018-03-31T11:38:28.962Z,17.44
2018-03-31T11:39:28.962Z,17.33
2018-03-31T11:40:28.913Z,17.54
2018-03-31T11:41:28.889Z,17.46
2018-03-31T11:42:28.903Z,17.72
2018-03-31T11:43:28.848Z,17.89
2018-03-31T11:44:28.837Z,17.86
2018-03-31T11:45:28.805Z,18.05
2018-03-31T11:46:28.766Z,18.25
2018-03-31T11:47:28.754Z,18.15
2018-03-31T11:48:28.727Z,18.29
2018-03-31T11:49:28.660Z,18.50
2018-03-31T11:50:28.646Z,18.67
2018-03-31T11:51:28.614Z,18.36
2018-03-31T11:52:28.584Z,18.33
2018-03-31T11:53:28.584Z,18.00
2018-03-31T11:54:28.530Z,18.26
2018-03-31T11:55:28.516Z,18.02
2018-03-31T11:56:28.485Z,17.86
2018-03-31T11:57:28.452Z,17.01
2018-03-31T11:58:28.446Z,16.81
2018-03-31T11:59:28.392Z,16.96
2018-03-31T12:00:28.377Z,16.86
2018-03-31T12:01:28.337Z,17.19
2018-03-31T12:02:28.331Z,17.34
2018-03-31T12:03:28.333Z,17.16
2018-03-31T12:04:28.275Z,17.37
2018-03-31T12:05:28.269Z,17.62
2018-03-31T12:06:28.207Z,17.41
2018-03-31T12:07:28.206Z,17.25
2018-03-31T12:08:28.177Z,17.07
2018-03-31T12:09:28.162Z,17.12
2018-03-31T12:10:28.124Z,17.21
2018-03-31T12:11:28.084Z,17.43
2018-03-31T12:12:28.055Z,17.25
2018-03-31T12:13:28.024Z,17.04
2018-03-31T12:14:28.013Z,16.78
2018-03-31T12:15:27.999Z,16.48
2018-03-31T12:16:27.932Z,16.42
2018-03-31T12:17:27.904Z,16.25
2018-03-31T12:18:27.873Z,16.21
2018-03-31T12:19:27.843Z,16.35
2018-03-31T12:20:27.854Z,16.05
2018-03-31T12:21:27.794Z,16.02
2018-03-31T12:22:27.790Z,16.21
2018-03-31T12:23:27.732Z,15.93
2018-03-31T12:24:27.716Z,15.71
2018-03-31T12:25:27.679Z,15.67
2018-03-31T12:26:27.708Z,15.74
2018-03-31T12:27:27.636Z,15.57
2018-03-31T12:28:27.593Z,15.67
2018-03-31T12:29:27.555Z,15.47
2018-03-31T12:30:27.536Z,15.53
2018-03-31T12:31:27.545Z,15.47
2018-03-31T12:32:27.486Z,15.47
2018-03-31T12:33:27.427Z,15.36
2018-03-31T12:34:27.406Z,15.29
2018-03-31T12:35:27.353Z,15.21
2018-03-31T12:36:27.320Z,15.29
2018-03-31T12:37:27.303Z,15.31
2018-03-31T12:38:27.282Z,15.10
2018-03-31T12:39:27.226Z,14.99
2018-03-31T12:40:27.193Z,14.99
2018-03-31T12:41:27.158Z,15.11
2018-03-31T12:42:27.123Z,15.10
2018-03-31T12:43:27.118Z,15.07
2018-03-31T12:44:27.064Z,15.10
2018-03-31T12:45:27.026Z,15.10
2018-03-31T12:46:26.993Z,14.98
2018-03-31T12:47:26.968Z,15.01
2018-03-31T12:48:26.949Z,15.11
2018-03-31T12:49:26.902Z,15.11
2018-03-31T12:50:26.860Z,15.01
2018-03-31T12:51:26.831Z,15.06
2018-03-31T12:52:26.798Z,15.11
2018-03-31T12:53:26.755Z,15.13
2018-03-31T12:54:26.749Z,15.06
2018-03-31T12:55:26.676Z,15.03
2018-03-31T12:56:26.653Z,15.11
2018-03-31T12:57:26.640Z,15.06
2018-03-31T12:58:26.577Z,15.01
2018-03-31T12:59:26.547Z,15.02
2018-03-31T13:00:26.545Z,15.10
2018-03-31T13:01:26.474Z,15.01
2018-03-31T13:02:26.452Z,14.99
2018-03-31T13:03:26.416Z,15.03
2018-03-31T13:04:26.457Z,14.80
2018-03-31T13:05:26.368Z,14.75
2018-03-31T13:06:26.326Z,14.96